sensor_id;sensor_type;location;lat;lon;timestamp;temperature;humidity
28438;DHT22;15667;52.376;9.708;2022-08-20T00:02:02;21.30;99.90
28438;DHT22;15667;52.376;9.708;2022-08-20T00:04:29;21.30;99.90
28438;DHT22;15667;52.376;9.708;2022-08-20T00:06:55;21.30;99.90
28438;DHT22;15667;52.376;9.708;2022-08-20T00:09:20;21.40;99.90
28438;DHT22;15667;52.376;9.708;2022-08-20T00:11:46;21.40;99.90
28438;DHT22;15667;52.376;9.708;2022-08-20T00:14:12;21.40;99.90
28438;DHT22;15667;52.376;9.708;2022-08-20T00:16:38;21.40;99.90
28438;DHT22;15667;52.376;9.708;2022-08-20T00:19:06;20.50;99.90
28438;DHT22;15667;52.376;9.708;2022-08-20T00:21:33;21.30;99.90
28438;DHT22;15667;52.376;9.708;2022-08-20T00:23:58;21.30;99.90
28438;DHT22;15667;52.376;9.708;2022-08-20T00:26:24;21.40;99.90
28438;DHT22;15667;52.376;9.708;2022-08-20T00:28:50;21.40;99.90
28438;DHT22;15667;52.376;9.708;2022-08-20T00:31:19;21.40;99.90
28438;DHT22;15667;52.376;9.708;2022-08-20T00:33:46;21.40;99.90
28438;DHT22;15667;52.376;9.708;2022-08-20T00:36:13;21.40;99.90
28438;DHT22;15667;52.376;9.708;2022-08-20T00:38:41;21.20;99.90
28438;DHT22;15667;52.376;9.708;2022-08-20T00:41:10;21.20;99.90
28438;DHT22;15667;52.376;9.708;2022-08-20T00:43:46;21.20;99.90
28438;DHT22;15667;52.376;9.708;2022-08-20T00:46:15;21.20;99.90
28438;DHT22;15667;52.376;9.708;2022-08-20T00:48:43;21.10;99.90
28438;DHT22;15667;52.376;9.708;2022-08-20T00:51:31;21.10;99.90
28438;DHT22;15667;52.376;9.708;2022-08-20T00:54:06;21.00;99.90
28438;DHT22;15667;52.376;9.708;2022-08-20T00:56:33;21.00;99.90
28438;DHT22;15667;52.376;9.708;2022-08-20T00:59:00;21.00;99.90
28438;DHT22;15667;52.376;9.708;2022-08-20T01:01:26;21.10;99.90
28438;DHT22;15667;52.376;9.708;2022-08-20T01:03:53;21.10;99.90
28438;DHT22;15667;52.376;9.708;2022-08-20T01:06:22;21.30;99.90
28438;DHT22;15667;52.376;9.708;2022-08-20T01:08:49;21.30;99.90
28438;DHT22;15667;52.376;9.708;2022-08-20T01:11:15;21.30;99.90
28438;DHT22;15667;52.376;9.708;2022-08-20T01:13:44;21.30;99.90
28438;DHT22;15667;52.376;9.708;2022-08-20T01:16:17;21.40;99.90
28438;DHT22;15667;52.376;9.708;2022-08-20T01:18:45;21.20;99.90
28438;DHT22;15667;52.376;9.708;2022-08-20T01:21:12;21.50;99.90
28438;DHT22;15667;52.376;9.708;2022-08-20T01:26:37;21.20;99.90
28438;DHT22;15667;52.376;9.708;2022-08-20T01:29:08;21.20;99.90
28438;DHT22;15667;52.376;9.708;2022-08-20T01:31:37;21.30;99.90
28438;DHT22;15667;52.376;9.708;2022-08-20T01:34:06;21.20;99.90
28438;DHT22;15667;52.376;9.708;2022-08-20T01:36:48;21.30;99.90
28438;DHT22;15667;52.376;9.708;2022-08-20T01:39:20;21.20;99.90
28438;DHT22;15667;52.376;9.708;2022-08-20T01:44:33;21.20;99.90
28438;DHT22;15667;52.376;9.708;2022-08-20T01:49:43;21.30;99.90
28438;DHT22;15667;52.376;9.708;2022-08-20T01:52:14;21.10;99.90
28438;DHT22;15667;52.376;9.708;2022-08-20T01:54:44;21.10;99.90
28438;DHT22;15667;52.376;9.708;2022-08-20T01:57:16;21.00;99.90
28438;DHT22;15667;52.376;9.708;2022-08-20T01:59:43;21.10;99.90
28438;DHT22;15667;52.376;9.708;2022-08-20T02:02:10;21.10;99.90
28438;DHT22;15667;52.376;9.708;2022-08-20T02:04:37;19.80;99.90
28438;DHT22;15667;52.376;9.708;2022-08-20T02:07:06;21.00;99.90
28438;DHT22;15667;52.376;9.708;2022-08-20T02:09:36;20.80;99.90
28438;DHT22;15667;52.376;9.708;2022-08-20T02:12:06;20.80;99.90
28438;DHT22;15667;52.376;9.708;2022-08-20T02:14:32;20.80;99.90
28438;DHT22;15667;52.376;9.708;2022-08-20T02:16:58;20.70;99.90
28438;DHT22;15667;52.376;9.708;2022-08-20T02:19:38;20.80;99.90
28438;DHT22;15667;52.376;9.708;2022-08-20T02:22:42;20.80;99.90
28438;DHT22;15667;52.376;9.708;2022-08-20T02:25:10;21.00;99.90
28438;DHT22;15667;52.376;9.708;2022-08-20T02:27:38;20.80;99.90
28438;DHT22;15667;52.376;9.708;2022-08-20T02:30:08;20.80;99.90
28438;DHT22;15667;52.376;9.708;2022-08-20T02:32:36;20.80;99.90
28438;DHT22;15667;52.376;9.708;2022-08-20T02:35:04;20.80;99.90
28438;DHT22;15667;52.376;9.708;2022-08-20T02:37:32;20.80;99.90
28438;DHT22;15667;52.376;9.708;2022-08-20T02:39:58;20.80;99.90
28438;DHT22;15667;52.376;9.708;2022-08-20T02:42:23;21.20;99.90
28438;DHT22;15667;52.376;9.708;2022-08-20T02:44:49;20.70;99.90
28438;DHT22;15667;52.376;9.708;2022-08-20T02:47:15;20.80;99.90
28438;DHT22;15667;52.376;9.708;2022-08-20T02:49:41;21.60;99.90
28438;DHT22;15667;52.376;9.708;2022-08-20T02:52:07;20.90;99.90
28438;DHT22;15667;52.376;9.708;2022-08-20T02:54:33;21.60;99.90
28438;DHT22;15667;52.376;9.708;2022-08-20T02:56:58;20.90;99.90
28438;DHT22;15667;52.376;9.708;2022-08-20T02:59:24;20.90;99.90
28438;DHT22;15667;52.376;9.708;2022-08-20T03:01:50;20.80;99.90
28438;DHT22;15667;52.376;9.708;2022-08-20T03:04:17;20.80;99.90
28438;DHT22;15667;52.376;9.708;2022-08-20T03:06:42;20.70;99.90
28438;DHT22;15667;52.376;9.708;2022-08-20T03:09:08;20.70;99.90
28438;DHT22;15667;52.376;9.708;2022-08-20T03:11:41;20.60;99.90
28438;DHT22;15667;52.376;9.708;2022-08-20T03:14:06;20.60;99.90
28438;DHT22;15667;52.376;9.708;2022-08-20T03:16:32;20.70;99.90
28438;DHT22;15667;52.376;9.708;2022-08-20T03:18:58;20.70;99.90
28438;DHT22;15667;52.376;9.708;2022-08-20T03:21:23;20.60;99.90
28438;DHT22;15667;52.376;9.708;2022-08-20T03:23:49;20.70;99.90
28438;DHT22;15667;52.376;9.708;2022-08-20T03:26:15;20.70;99.90
28438;DHT22;15667;52.376;9.708;2022-08-20T03:28:41;20.60;99.90
28438;DHT22;15667;52.376;9.708;2022-08-20T03:31:08;20.60;99.90
28438;DHT22;15667;52.376;9.708;2022-08-20T03:33:34;20.80;99.90
28438;DHT22;15667;52.376;9.708;2022-08-20T03:36:00;20.60;99.90
28438;DHT22;15667;52.376;9.708;2022-08-20T03:38:26;19.50;99.90
28438;DHT22;15667;52.376;9.708;2022-08-20T03:40:51;20.60;99.90
28438;DHT22;15667;52.376;9.708;2022-08-20T03:43:17;20.50;99.90
28438;DHT22;15667;52.376;9.708;2022-08-20T03:45:44;20.60;99.90
28438;DHT22;15667;52.376;9.708;2022-08-20T03:48:14;20.60;99.90
28438;DHT22;15667;52.376;9.708;2022-08-20T03:50:41;20.70;99.90
28438;DHT22;15667;52.376;9.708;2022-08-20T03:53:09;20.70;99.90
28438;DHT22;15667;52.376;9.708;2022-08-20T03:55:36;20.60;99.90
28438;DHT22;15667;52.376;9.708;2022-08-20T03:58:05;20.70;99.90
28438;DHT22;15667;52.376;9.708;2022-08-20T04:00:41;19.70;99.90
28438;DHT22;15667;52.376;9.708;2022-08-20T04:03:08;20.60;99.90
28438;DHT22;15667;52.376;9.708;2022-08-20T04:05:35;20.40;99.90
28438;DHT22;15667;52.376;9.708;2022-08-20T04:08:06;20.60;99.90
28438;DHT22;15667;52.376;9.708;2022-08-20T04:10:32;20.60;99.90
28438;DHT22;15667;52.376;9.708;2022-08-20T04:12:58;20.60;99.90
28438;DHT22;15667;52.376;9.708;2022-08-20T04:15:24;20.70;99.90
28438;DHT22;15667;52.376;9.708;2022-08-20T04:17:51;20.60;99.90
28438;DHT22;15667;52.376;9.708;2022-08-20T04:20:22;20.60;99.90
28438;DHT22;15667;52.376;9.708;2022-08-20T04:22:53;20.50;99.90
28438;DHT22;15667;52.376;9.708;2022-08-20T04:25:19;20.60;99.90
28438;DHT22;15667;52.376;9.708;2022-08-20T04:27:47;20.50;99.90
28438;DHT22;15667;52.376;9.708;2022-08-20T04:30:16;20.50;99.90
28438;DHT22;15667;52.376;9.708;2022-08-20T04:32:43;20.50;99.90
28438;DHT22;15667;52.376;9.708;2022-08-20T04:35:12;20.50;99.90
28438;DHT22;15667;52.376;9.708;2022-08-20T04:37:40;20.50;99.90
28438;DHT22;15667;52.376;9.708;2022-08-20T04:40:10;20.40;99.90
28438;DHT22;15667;52.376;9.708;2022-08-20T04:43:09;20.40;99.90
28438;DHT22;15667;52.376;9.708;2022-08-20T04:45:35;20.30;99.90
28438;DHT22;15667;52.376;9.708;2022-08-20T04:48:03;20.20;99.90
28438;DHT22;15667;52.376;9.708;2022-08-20T04:50:36;20.10;99.90
28438;DHT22;15667;52.376;9.708;2022-08-20T04:53:04;20.10;99.90
28438;DHT22;15667;52.376;9.708;2022-08-20T04:55:30;20.20;99.90
28438;DHT22;15667;52.376;9.708;2022-08-20T04:58:03;20.00;99.90
28438;DHT22;15667;52.376;9.708;2022-08-20T05:00:29;19.90;99.90
28438;DHT22;15667;52.376;9.708;2022-08-20T05:02:56;19.80;99.90
28438;DHT22;15667;52.376;9.708;2022-08-20T05:05:21;19.80;99.90
28438;DHT22;15667;52.376;9.708;2022-08-20T05:07:47;19.50;99.90
28438;DHT22;15667;52.376;9.708;2022-08-20T05:10:15;19.40;99.90
28438;DHT22;15667;52.376;9.708;2022-08-20T05:12:41;19.30;99.90
28438;DHT22;15667;52.376;9.708;2022-08-20T05:15:08;19.40;99.90
28438;DHT22;15667;52.376;9.708;2022-08-20T05:17:41;19.60;99.90
28438;DHT22;15667;52.376;9.708;2022-08-20T05:20:12;19.70;99.90
28438;DHT22;15667;52.376;9.708;2022-08-20T05:22:38;19.80;99.90
28438;DHT22;15667;52.376;9.708;2022-08-20T05:25:06;19.80;99.90
28438;DHT22;15667;52.376;9.708;2022-08-20T05:27:32;19.90;99.90
28438;DHT22;15667;52.376;9.708;2022-08-20T05:30:05;20.00;99.90
28438;DHT22;15667;52.376;9.708;2022-08-20T05:32:34;20.00;99.90
28438;DHT22;15667;52.376;9.708;2022-08-20T05:35:07;20.00;99.90
28438;DHT22;15667;52.376;9.708;2022-08-20T05:37:38;20.10;99.90
28438;DHT22;15667;52.376;9.708;2022-08-20T05:40:13;19.90;99.90
28438;DHT22;15667;52.376;9.708;2022-08-20T05:42:39;20.00;99.90
28438;DHT22;15667;52.376;9.708;2022-08-20T05:45:06;20.10;99.90
28438;DHT22;15667;52.376;9.708;2022-08-20T05:47:33;20.10;99.90
28438;DHT22;15667;52.376;9.708;2022-08-20T05:49:59;19.40;99.90
28438;DHT22;15667;52.376;9.708;2022-08-20T05:52:26;20.20;99.90
28438;DHT22;15667;52.376;9.708;2022-08-20T05:54:53;20.30;99.90
28438;DHT22;15667;52.376;9.708;2022-08-20T05:57:21;20.30;99.90
28438;DHT22;15667;52.376;9.708;2022-08-20T05:59:47;20.40;99.90
28438;DHT22;15667;52.376;9.708;2022-08-20T06:02:13;20.30;99.90
28438;DHT22;15667;52.376;9.708;2022-08-20T06:04:58;20.20;99.90
28438;DHT22;15667;52.376;9.708;2022-08-20T06:07:24;20.40;99.90
28438;DHT22;15667;52.376;9.708;2022-08-20T06:09:49;20.40;99.90
28438;DHT22;15667;52.376;9.708;2022-08-20T06:12:15;20.60;99.90
28438;DHT22;15667;52.376;9.708;2022-08-20T06:14:42;20.60;99.90
28438;DHT22;15667;52.376;9.708;2022-08-20T06:17:13;20.60;99.90
28438;DHT22;15667;52.376;9.708;2022-08-20T06:19:39;20.60;99.90
28438;DHT22;15667;52.376;9.708;2022-08-20T06:22:05;20.50;99.90
28438;DHT22;15667;52.376;9.708;2022-08-20T06:24:32;20.50;99.90
28438;DHT22;15667;52.376;9.708;2022-08-20T06:27:00;20.80;99.90
28438;DHT22;15667;52.376;9.708;2022-08-20T06:29:27;20.80;99.90
28438;DHT22;15667;52.376;9.708;2022-08-20T06:31:53;20.80;99.90
28438;DHT22;15667;52.376;9.708;2022-08-20T06:34:19;20.60;99.90
28438;DHT22;15667;52.376;9.708;2022-08-20T06:36:45;20.50;99.90
28438;DHT22;15667;52.376;9.708;2022-08-20T06:39:13;20.90;99.90
28438;DHT22;15667;52.376;9.708;2022-08-20T06:41:39;20.80;99.90
28438;DHT22;15667;52.376;9.708;2022-08-20T06:44:06;20.80;99.90
28438;DHT22;15667;52.376;9.708;2022-08-20T06:46:36;21.00;99.90
28438;DHT22;15667;52.376;9.708;2022-08-20T06:49:03;20.80;99.90
28438;DHT22;15667;52.376;9.708;2022-08-20T06:51:29;21.00;99.90
28438;DHT22;15667;52.376;9.708;2022-08-20T06:54:31;21.00;99.90
28438;DHT22;15667;52.376;9.708;2022-08-20T06:56:59;21.30;99.90
28438;DHT22;15667;52.376;9.708;2022-08-20T06:59:25;21.60;99.90
28438;DHT22;15667;52.376;9.708;2022-08-20T07:01:50;21.10;99.90
28438;DHT22;15667;52.376;9.708;2022-08-20T07:04:24;21.80;99.90
28438;DHT22;15667;52.376;9.708;2022-08-20T07:06:51;21.80;99.90
28438;DHT22;15667;52.376;9.708;2022-08-20T07:09:20;21.80;99.90
28438;DHT22;15667;52.376;9.708;2022-08-20T07:11:47;20.90;99.90
28438;DHT22;15667;52.376;9.708;2022-08-20T07:14:14;21.90;99.90
28438;DHT22;15667;52.376;9.708;2022-08-20T07:16:40;22.00;99.90
28438;DHT22;15667;52.376;9.708;2022-08-20T07:19:06;22.10;99.90
28438;DHT22;15667;52.376;9.708;2022-08-20T07:21:33;22.00;99.90
28438;DHT22;15667;52.376;9.708;2022-08-20T07:23:59;22.10;99.90
28438;DHT22;15667;52.376;9.708;2022-08-20T07:26:25;22.10;99.90
28438;DHT22;15667;52.376;9.708;2022-08-20T07:28:50;22.00;99.90
28438;DHT22;15667;52.376;9.708;2022-08-20T07:31:19;20.30;99.90
28438;DHT22;15667;52.376;9.708;2022-08-20T07:34:04;21.70;99.90
28438;DHT22;15667;52.376;9.708;2022-08-20T07:36:31;22.20;99.90
28438;DHT22;15667;52.376;9.708;2022-08-20T07:41:54;22.40;99.90
28438;DHT22;15667;52.376;9.708;2022-08-20T07:47:37;21.50;99.90
28438;DHT22;15667;52.376;9.708;2022-08-20T07:50:04;22.30;99.90
28438;DHT22;15667;52.376;9.708;2022-08-20T07:52:31;22.80;99.90
28438;DHT22;15667;52.376;9.708;2022-08-20T07:55:09;23.90;99.90
28438;DHT22;15667;52.376;9.708;2022-08-20T07:57:37;23.70;99.90
28438;DHT22;15667;52.376;9.708;2022-08-20T08:00:04;21.90;99.90
28438;DHT22;15667;52.376;9.708;2022-08-20T08:02:32;22.20;99.90
28438;DHT22;15667;52.376;9.708;2022-08-20T08:04:58;22.30;99.90
28438;DHT22;15667;52.376;9.708;2022-08-20T08:07:25;22.30;99.90
28438;DHT22;15667;52.376;9.708;2022-08-20T08:09:54;22.20;99.90
28438;DHT22;15667;52.376;9.708;2022-08-20T08:12:21;22.20;99.90
28438;DHT22;15667;52.376;9.708;2022-08-20T08:14:49;22.50;99.90
28438;DHT22;15667;52.376;9.708;2022-08-20T08:17:15;22.20;99.90
28438;DHT22;15667;52.376;9.708;2022-08-20T08:19:46;22.20;99.90
28438;DHT22;15667;52.376;9.708;2022-08-20T08:22:14;22.10;99.90
28438;DHT22;15667;52.376;9.708;2022-08-20T08:24:42;21.20;99.90
28438;DHT22;15667;52.376;9.708;2022-08-20T08:27:09;22.20;99.90
28438;DHT22;15667;52.376;9.708;2022-08-20T08:29:35;22.20;99.90
28438;DHT22;15667;52.376;9.708;2022-08-20T08:32:05;22.30;99.90
28438;DHT22;15667;52.376;9.708;2022-08-20T08:34:33;22.00;99.90
28438;DHT22;15667;52.376;9.708;2022-08-20T08:36:59;22.10;99.90
28438;DHT22;15667;52.376;9.708;2022-08-20T08:39:27;22.30;99.90
28438;DHT22;15667;52.376;9.708;2022-08-20T08:41:55;22.30;99.90
28438;DHT22;15667;52.376;9.708;2022-08-20T08:47:01;22.00;99.90
28438;DHT22;15667;52.376;9.708;2022-08-20T08:49:34;22.00;99.90
28438;DHT22;15667;52.376;9.708;2022-08-20T08:52:11;22.10;99.90
28438;DHT22;15667;52.376;9.708;2022-08-20T08:54:43;22.00;99.90
28438;DHT22;15667;52.376;9.708;2022-08-20T08:57:11;22.00;99.90
28438;DHT22;15667;52.376;9.708;2022-08-20T08:59:36;22.10;99.90
28438;DHT22;15667;52.376;9.708;2022-08-20T09:02:02;22.00;99.90
28438;DHT22;15667;52.376;9.708;2022-08-20T09:04:36;22.00;99.90
28438;DHT22;15667;52.376;9.708;2022-08-20T09:07:04;22.00;99.90
28438;DHT22;15667;52.376;9.708;2022-08-20T09:09:36;22.00;99.90
28438;DHT22;15667;52.376;9.708;2022-08-20T09:12:17;22.10;99.90
28438;DHT22;15667;52.376;9.708;2022-08-20T09:14:53;22.30;99.90
28438;DHT22;15667;52.376;9.708;2022-08-20T09:17:21;22.10;99.90
28438;DHT22;15667;52.376;9.708;2022-08-20T09:19:47;22.20;99.90
28438;DHT22;15667;52.376;9.708;2022-08-20T09:22:19;22.50;99.90
28438;DHT22;15667;52.376;9.708;2022-08-20T09:24:45;22.40;99.90
28438;DHT22;15667;52.376;9.708;2022-08-20T09:27:10;22.40;99.90
28438;DHT22;15667;52.376;9.708;2022-08-20T09:29:37;20.40;99.90
28438;DHT22;15667;52.376;9.708;2022-08-20T09:32:09;22.40;99.90
28438;DHT22;15667;52.376;9.708;2022-08-20T09:34:37;22.20;99.90
28438;DHT22;15667;52.376;9.708;2022-08-20T09:37:04;22.20;99.90
28438;DHT22;15667;52.376;9.708;2022-08-20T09:39:30;22.20;99.90
28438;DHT22;15667;52.376;9.708;2022-08-20T09:42:08;22.30;99.90
28438;DHT22;15667;52.376;9.708;2022-08-20T09:44:34;22.50;99.90
28438;DHT22;15667;52.376;9.708;2022-08-20T09:47:00;22.60;99.90
28438;DHT22;15667;52.376;9.708;2022-08-20T09:49:26;22.70;99.90
28438;DHT22;15667;52.376;9.708;2022-08-20T09:51:52;22.80;99.90
28438;DHT22;15667;52.376;9.708;2022-08-20T09:54:19;23.00;99.90
28438;DHT22;15667;52.376;9.708;2022-08-20T09:56:44;23.30;99.90
28438;DHT22;15667;52.376;9.708;2022-08-20T09:59:12;23.20;99.90
28438;DHT22;15667;52.376;9.708;2022-08-20T10:01:38;22.80;99.90
28438;DHT22;15667;52.376;9.708;2022-08-20T10:04:04;23.30;99.90
28438;DHT22;15667;52.376;9.708;2022-08-20T10:06:30;23.40;99.90
28438;DHT22;15667;52.376;9.708;2022-08-20T10:08:59;22.60;99.90
28438;DHT22;15667;52.376;9.708;2022-08-20T10:11:27;23.80;99.90
28438;DHT22;15667;52.376;9.708;2022-08-20T10:13:53;23.80;99.90
28438;DHT22;15667;52.376;9.708;2022-08-20T10:16:18;23.50;99.90
28438;DHT22;15667;52.376;9.708;2022-08-20T10:18:44;23.50;99.90
28438;DHT22;15667;52.376;9.708;2022-08-20T10:21:10;23.50;99.90
28438;DHT22;15667;52.376;9.708;2022-08-20T10:23:36;23.40;99.90
28438;DHT22;15667;52.376;9.708;2022-08-20T10:26:01;23.40;99.90
28438;DHT22;15667;52.376;9.708;2022-08-20T10:28:27;23.10;99.90
28438;DHT22;15667;52.376;9.708;2022-08-20T10:30:53;23.40;99.90
28438;DHT22;15667;52.376;9.708;2022-08-20T10:33:18;23.50;99.90
28438;DHT22;15667;52.376;9.708;2022-08-20T10:35:44;23.50;99.90
28438;DHT22;15667;52.376;9.708;2022-08-20T10:38:09;23.50;99.90
28438;DHT22;15667;52.376;9.708;2022-08-20T10:40:35;23.20;99.90
28438;DHT22;15667;52.376;9.708;2022-08-20T10:43:01;23.30;99.90
28438;DHT22;15667;52.376;9.708;2022-08-20T10:45:27;22.70;99.90
28438;DHT22;15667;52.376;9.708;2022-08-20T10:47:53;20.70;99.90
28438;DHT22;15667;52.376;9.708;2022-08-20T10:50:18;22.10;99.90
28438;DHT22;15667;52.376;9.708;2022-08-20T10:52:45;21.60;99.90
28438;DHT22;15667;52.376;9.708;2022-08-20T10:55:11;21.40;99.90
28438;DHT22;15667;52.376;9.708;2022-08-20T10:57:39;21.40;99.90
28438;DHT22;15667;52.376;9.708;2022-08-20T11:00:06;22.40;99.90
28438;DHT22;15667;52.376;9.708;2022-08-20T11:02:35;21.10;99.90
28438;DHT22;15667;52.376;9.708;2022-08-20T11:05:01;19.80;99.90
28438;DHT22;15667;52.376;9.708;2022-08-20T11:07:30;21.00;99.90
28438;DHT22;15667;52.376;9.708;2022-08-20T11:09:56;21.00;99.90
28438;DHT22;15667;52.376;9.708;2022-08-20T11:12:22;20.90;99.90
28438;DHT22;15667;52.376;9.708;2022-08-20T11:14:49;20.90;99.90
28438;DHT22;15667;52.376;9.708;2022-08-20T11:17:30;21.00;99.90
28438;DHT22;15667;52.376;9.708;2022-08-20T11:19:57;21.00;99.90
28438;DHT22;15667;52.376;9.708;2022-08-20T11:22:23;21.10;99.90
28438;DHT22;15667;52.376;9.708;2022-08-20T11:24:50;21.10;99.90
28438;DHT22;15667;52.376;9.708;2022-08-20T11:27:36;21.10;99.90
28438;DHT22;15667;52.376;9.708;2022-08-20T11:30:05;21.10;99.90
28438;DHT22;15667;52.376;9.708;2022-08-20T11:32:31;21.40;99.90
28438;DHT22;15667;52.376;9.708;2022-08-20T11:34:57;21.50;99.90
28438;DHT22;15667;52.376;9.708;2022-08-20T11:37:23;21.10;99.90
28438;DHT22;15667;52.376;9.708;2022-08-20T11:39:50;21.10;99.90
28438;DHT22;15667;52.376;9.708;2022-08-20T11:42:16;21.30;99.90
28438;DHT22;15667;52.376;9.708;2022-08-20T11:44:42;21.30;99.90
28438;DHT22;15667;52.376;9.708;2022-08-20T11:47:18;21.50;99.90
28438;DHT22;15667;52.376;9.708;2022-08-20T11:49:44;21.60;99.90
28438;DHT22;15667;52.376;9.708;2022-08-20T11:52:10;21.70;99.90
28438;DHT22;15667;52.376;9.708;2022-08-20T11:54:35;22.00;99.90
28438;DHT22;15667;52.376;9.708;2022-08-20T11:57:05;22.10;99.90
28438;DHT22;15667;52.376;9.708;2022-08-20T11:59:30;22.40;99.90
28438;DHT22;15667;52.376;9.708;2022-08-20T12:01:56;22.30;99.90
28438;DHT22;15667;52.376;9.708;2022-08-20T12:04:23;22.50;99.90
28438;DHT22;15667;52.376;9.708;2022-08-20T12:06:49;22.60;99.90
28438;DHT22;15667;52.376;9.708;2022-08-20T12:09:16;22.60;99.90
28438;DHT22;15667;52.376;9.708;2022-08-20T12:11:43;21.70;99.90
28438;DHT22;15667;52.376;9.708;2022-08-20T12:14:11;22.50;99.90
28438;DHT22;15667;52.376;9.708;2022-08-20T12:16:38;22.30;99.90
28438;DHT22;15667;52.376;9.708;2022-08-20T12:19:04;22.80;99.90
28438;DHT22;15667;52.376;9.708;2022-08-20T12:21:31;22.90;99.90
28438;DHT22;15667;52.376;9.708;2022-08-20T12:23:58;23.20;99.90
28438;DHT22;15667;52.376;9.708;2022-08-20T12:26:25;24.10;99.90
28438;DHT22;15667;52.376;9.708;2022-08-20T12:28:51;21.90;99.90
28438;DHT22;15667;52.376;9.708;2022-08-20T12:31:23;22.40;99.90
28438;DHT22;15667;52.376;9.708;2022-08-20T12:36:45;24.40;99.90
28438;DHT22;15667;52.376;9.708;2022-08-20T12:39:10;24.20;99.90
28438;DHT22;15667;52.376;9.708;2022-08-20T12:41:36;24.10;99.90
28438;DHT22;15667;52.376;9.708;2022-08-20T12:47:23;24.00;99.90
28438;DHT22;15667;52.376;9.708;2022-08-20T12:49:58;24.20;99.90
28438;DHT22;15667;52.376;9.708;2022-08-20T12:52:28;24.60;99.90
28438;DHT22;15667;52.376;9.708;2022-08-20T12:54:55;24.70;99.90
28438;DHT22;15667;52.376;9.708;2022-08-20T13:00:06;23.60;99.90
28438;DHT22;15667;52.376;9.708;2022-08-20T13:02:33;23.70;99.90
28438;DHT22;15667;52.376;9.708;2022-08-20T13:15:24;24.80;99.90
28438;DHT22;15667;52.376;9.708;2022-08-20T13:18:28;25.10;99.90
28438;DHT22;15667;52.376;9.708;2022-08-20T13:20:53;25.30;99.90
28438;DHT22;15667;52.376;9.708;2022-08-20T13:23:22;25.10;99.90
28438;DHT22;15667;52.376;9.708;2022-08-20T13:25:47;25.10;99.90
28438;DHT22;15667;52.376;9.708;2022-08-20T13:28:13;24.90;99.90
28438;DHT22;15667;52.376;9.708;2022-08-20T13:30:39;24.60;99.90
28438;DHT22;15667;52.376;9.708;2022-08-20T13:33:05;24.50;99.90
28438;DHT22;15667;52.376;9.708;2022-08-20T13:35:31;25.10;99.90
28438;DHT22;15667;52.376;9.708;2022-08-20T13:37:56;25.20;99.90
28438;DHT22;15667;52.376;9.708;2022-08-20T13:40:22;25.30;99.90
28438;DHT22;15667;52.376;9.708;2022-08-20T13:42:48;25.40;99.90
28438;DHT22;15667;52.376;9.708;2022-08-20T13:45:13;25.80;99.90
28438;DHT22;15667;52.376;9.708;2022-08-20T13:47:40;26.10;99.90
28438;DHT22;15667;52.376;9.708;2022-08-20T13:50:11;26.20;99.90
28438;DHT22;15667;52.376;9.708;2022-08-20T13:52:37;26.10;99.90
28438;DHT22;15667;52.376;9.708;2022-08-20T13:55:05;26.10;99.90
28438;DHT22;15667;52.376;9.708;2022-08-20T13:57:31;26.30;99.90
28438;DHT22;15667;52.376;9.708;2022-08-20T13:59:57;26.40;99.90
28438;DHT22;15667;52.376;9.708;2022-08-20T14:02:24;26.50;99.90
28438;DHT22;15667;52.376;9.708;2022-08-20T14:04:50;26.10;99.90
28438;DHT22;15667;52.376;9.708;2022-08-20T14:07:28;25.50;99.90
28438;DHT22;15667;52.376;9.708;2022-08-20T14:10:06;25.20;99.90
28438;DHT22;15667;52.376;9.708;2022-08-20T14:12:32;25.20;99.90
28438;DHT22;15667;52.376;9.708;2022-08-20T14:14:57;25.50;99.90
28438;DHT22;15667;52.376;9.708;2022-08-20T14:19:49;25.20;99.90
28438;DHT22;15667;52.376;9.708;2022-08-20T14:22:16;25.10;99.90
28438;DHT22;15667;52.376;9.708;2022-08-20T14:24:43;25.00;99.90
28438;DHT22;15667;52.376;9.708;2022-08-20T14:27:10;25.00;99.90
28438;DHT22;15667;52.376;9.708;2022-08-20T14:29:40;24.80;99.90
28438;DHT22;15667;52.376;9.708;2022-08-20T14:32:07;24.80;99.90
28438;DHT22;15667;52.376;9.708;2022-08-20T14:34:33;24.80;99.90
28438;DHT22;15667;52.376;9.708;2022-08-20T14:37:29;24.90;99.90
28438;DHT22;15667;52.376;9.708;2022-08-20T14:39:57;24.80;99.90
28438;DHT22;15667;52.376;9.708;2022-08-20T14:42:25;24.80;99.90
28438;DHT22;15667;52.376;9.708;2022-08-20T14:44:53;24.80;99.90
28438;DHT22;15667;52.376;9.708;2022-08-20T14:47:30;25.00;99.90
28438;DHT22;15667;52.376;9.708;2022-08-20T14:50:01;25.10;99.90
28438;DHT22;15667;52.376;9.708;2022-08-20T14:52:28;25.20;99.90
28438;DHT22;15667;52.376;9.708;2022-08-20T14:54:54;25.50;99.90
28438;DHT22;15667;52.376;9.708;2022-08-20T14:57:20;25.30;99.90
28438;DHT22;15667;52.376;9.708;2022-08-20T14:59:51;25.20;99.90
28438;DHT22;15667;52.376;9.708;2022-08-20T15:02:17;25.40;99.90
28438;DHT22;15667;52.376;9.708;2022-08-20T15:04:43;25.50;99.90
28438;DHT22;15667;52.376;9.708;2022-08-20T15:07:30;25.70;99.90
28438;DHT22;15667;52.376;9.708;2022-08-20T15:09:57;25.80;99.90
28438;DHT22;15667;52.376;9.708;2022-08-20T15:12:24;25.70;99.90
28438;DHT22;15667;52.376;9.708;2022-08-20T15:14:50;25.90;99.90
28438;DHT22;15667;52.376;9.708;2022-08-20T15:17:20;25.60;99.90
28438;DHT22;15667;52.376;9.708;2022-08-20T15:19:47;25.50;99.90
28438;DHT22;15667;52.376;9.708;2022-08-20T15:22:13;25.20;99.90
28438;DHT22;15667;52.376;9.708;2022-08-20T15:24:39;24.90;99.90
28438;DHT22;15667;52.376;9.708;2022-08-20T15:27:24;25.10;99.90
28438;DHT22;15667;52.376;9.708;2022-08-20T15:29:51;24.80;99.90
28438;DHT22;15667;52.376;9.708;2022-08-20T15:32:17;24.60;99.90
28438;DHT22;15667;52.376;9.708;2022-08-20T15:34:43;24.30;99.90
28438;DHT22;15667;52.376;9.708;2022-08-20T15:37:20;24.30;99.90
28438;DHT22;15667;52.376;9.708;2022-08-20T15:39:48;24.30;99.90
28438;DHT22;15667;52.376;9.708;2022-08-20T15:42:14;24.40;99.90
28438;DHT22;15667;52.376;9.708;2022-08-20T15:44:40;24.40;99.90
28438;DHT22;15667;52.376;9.708;2022-08-20T15:50:03;24.30;99.90
28438;DHT22;15667;52.376;9.708;2022-08-20T15:52:31;24.30;99.90
28438;DHT22;15667;52.376;9.708;2022-08-20T15:55:00;24.40;99.90
28438;DHT22;15667;52.376;9.708;2022-08-20T16:00:11;26.30;99.90
28438;DHT22;15667;52.376;9.708;2022-08-20T16:02:57;24.90;99.90
28438;DHT22;15667;52.376;9.708;2022-08-20T16:06:06;25.00;99.90
28438;DHT22;15667;52.376;9.708;2022-08-20T16:14:22;25.00;99.90
28438;DHT22;15667;52.376;9.708;2022-08-20T16:16:52;25.00;99.90
28438;DHT22;15667;52.376;9.708;2022-08-20T16:19:24;24.90;99.90
28438;DHT22;15667;52.376;9.708;2022-08-20T16:21:52;24.80;99.90
28438;DHT22;15667;52.376;9.708;2022-08-20T16:24:19;24.80;99.90
28438;DHT22;15667;52.376;9.708;2022-08-20T16:26:49;24.80;99.90
28438;DHT22;15667;52.376;9.708;2022-08-20T16:30:11;24.90;99.90